Time,TemperatureF,DewpointF,PressureIn,WindDirection,WindDirectionDegrees,WindSpeedMPH,WindSpeedGustMPH,Humidity,HourlyPrecipIn,Conditions,Clouds,dailyrainin,SoftwareType,DateUTC
2013-07-03 00:09:00,59.2,56.0,29.89,SW,227,0.0,1.0,89,0.00,,,0.00,weatherlink.com 1.10,2013-07-03 07:09:00,
2013-07-03 00:24:00,59.2,56.0,29.89,SW,227,0.0,1.0,90,0.00,,,0.00,weatherlink.com 1.10,2013-07-03 07:24:00,
2013-07-03 00:39:00,59.2,56.0,29.89,SW,227,0.0,2.0,90,0.00,,,0.00,weatherlink.com 1.10,2013-07-03 07:39:00,
2013-07-03 00:54:00,59.3,56.0,29.88,SW,227,0.0,3.0,90,0.00,,,0.00,weatherlink.com 1.10,2013-07-03 07:54:00,
2013-07-03 01:09:00,59.1,56.0,29.88,SW,227,0.0,2.0,90,0.00,,,0.00,weatherlink.com 1.10,2013-07-03 08:09:00,
2013-07-03 01:24:00,58.9,56.0,29.89,SW,227,0.0,0.0,91,0.00,,,0.00,weatherlink.com 1.10,2013-07-03 08:24:00,
2013-07-03 01:39:00,58.8,56.0,29.88,SW,227,0.0,2.0,91,0.00,,,0.00,weatherlink.com 1.10,2013-07-03 08:39:00,
2013-07-03 02:09:00,58.7,56.0,29.87,SW,227,0.0,0.0,91,0.00,,,0.00,weatherlink.com 1.10,2013-07-03 09:09:00,
2013-07-03 02:24:00,58.6,56.0,29.88,SW,227,0.0,0.0,92,0.00,,,0.00,weatherlink.com 1.10,2013-07-03 09:24:00,
2013-07-03 02:39:00,58.6,56.0,29.87,SW,227,0.0,0.0,92,0.00,,,0.00,weatherlink.com 1.10,2013-07-03 09:39:00,
2013-07-03 02:54:00,58.5,56.0,29.86,SW,227,0.0,1.0,92,0.00,,,0.00,weatherlink.com 1.10,2013-07-03 09:54:00,
2013-07-03 03:09:00,58.4,56.0,29.86,SW,227,0.0,0.0,92,0.00,,,0.00,weatherlink.com 1.10,2013-07-03 10:09:00,
2013-07-03 03:24:00,58.3,56.0,29.86,SW,227,0.0,0.0,92,0.00,,,0.00,weatherlink.com 1.10,2013-07-03 10:24:00,
2013-07-03 04:09:00,58.1,56.0,29.86,SW,227,0.0,0.0,93,0.00,,,0.00,weatherlink.com 1.10,2013-07-03 11:09:00,
2013-07-03 04:39:00,58.0,56.0,29.86,SW,227,0.0,0.0,94,0.00,,,0.00,weatherlink.com 1.10,2013-07-03 11:39:00,
2013-07-03 04:54:00,58.0,56.0,29.86,SW,227,0.0,0.0,94,0.00,,,0.00,weatherlink.com 1.10,2013-07-03 11:54:00,
2013-07-03 05:09:00,58.0,56.0,29.86,SW,227,0.0,0.0,94,0.00,,,0.00,weatherlink.com 1.10,2013-07-03 12:09:00,
2013-07-03 05:24:00,58.2,57.0,29.86,SW,227,0.0,0.0,94,0.00,,,0.00,weatherlink.com 1.10,2013-07-03 12:24:00,
2013-07-03 05:54:00,58.2,57.0,29.86,SW,227,0.0,0.0,94,0.00,,,0.00,weatherlink.com 1.10,2013-07-03 12:54:00,
2013-07-03 06:24:00,58.4,57.0,29.86,SW,227,0.0,0.0,94,0.00,,,0.00,weatherlink.com 1.10,2013-07-03 13:24:00,
2013-07-03 06:39:00,58.7,57.0,29.86,SW,227,0.0,0.0,94,0.00,,,0.00,weatherlink.com 1.10,2013-07-03 13:39:00,
2013-07-03 06:54:00,59.2,58.0,29.86,SW,227,0.0,0.0,94,0.00,,,0.00,weatherlink.com 1.10,2013-07-03 13:54:00,
2013-07-03 07:09:00,59.8,58.0,29.86,SW,227,0.0,1.0,93,0.00,,,0.00,weatherlink.com 1.10,2013-07-03 14:09:00,
2013-07-03 07:24:00,60.5,58.0,29.86,SW,227,0.0,1.0,92,0.00,,,0.00,weatherlink.com 1.10,2013-07-03 14:24:00,
2013-07-03 07:54:00,61.8,59.0,29.87,SW,227,0.0,0.0,89,0.00,,,0.00,weatherlink.com 1.10,2013-07-03 14:54:00,
2013-07-03 08:09:00,62.8,59.0,29.87,SW,227,0.0,1.0,88,0.00,,,0.00,weatherlink.com 1.10,2013-07-03 15:09:00,
2013-07-03 08:24:00,63.9,59.0,29.87,WSW,238,0.0,2.0,85,0.00,,,0.00,weatherlink.com 1.10,2013-07-03 15:24:00,
2013-07-03 08:55:00,66.5,60.0,29.86,West,264,0.0,1.0,80,0.00,,,0.00,weatherlink.com 1.10,2013-07-03 15:55:00,
2013-07-03 09:10:00,68.3,61.0,29.86,SW,232,1.0,4.0,77,0.00,,,0.00,weatherlink.com 1.10,2013-07-03 16:10:00,
2013-07-03 09:40:00,70.4,62.0,29.85,SW,232,3.0,5.0,74,0.00,,,0.00,weatherlink.com 1.10,2013-07-03 16:40:00,
2013-07-03 09:55:00,71.6,63.0,29.85,SW,230,3.0,5.0,73,0.00,,,0.00,weatherlink.com 1.10,2013-07-03 16:55:00,
2013-07-03 10:10:00,72.8,62.0,29.84,SW,220,2.0,4.0,70,0.00,,,0.00,weatherlink.com 1.10,2013-07-03 17:10:00,
2013-07-03 10:25:00,74.4,63.0,29.84,SW,229,2.0,4.0,67,0.00,,,0.00,weatherlink.com 1.10,2013-07-03 17:25:00,
2013-07-03 10:40:00,75.6,63.0,29.84,SW,217,2.0,5.0,66,0.00,,,0.00,weatherlink.com 1.10,2013-07-03 17:40:00,
2013-07-03 10:55:00,76.8,65.0,29.83,SW,217,3.0,3.0,66,0.00,,,0.00,weatherlink.com 1.10,2013-07-03 17:55:00,
2013-07-03 11:10:00,78.0,65.0,29.83,SW,223,0.0,3.0,65,0.00,,,0.00,weatherlink.com 1.10,2013-07-03 18:10:00,
2013-07-03 11:25:00,80.6,66.0,29.82,West,280,0.0,2.0,61,0.00,,,0.00,weatherlink.com 1.10,2013-07-03 18:25:00,
2013-07-03 11:40:00,82.3,67.0,29.82,North,9,0.0,2.0,60,0.00,,,0.00,weatherlink.com 1.10,2013-07-03 18:40:00,
2013-07-03 12:25:00,85.9,68.0,29.80,NNE,12,3.0,3.0,55,0.00,,,0.00,weatherlink.com 1.10,2013-07-03 19:25:00,
2013-07-03 12:41:00,87.6,68.0,29.80,South,174,0.0,3.0,52,0.00,,,0.00,weatherlink.com 1.10,2013-07-03 19:41:00,
2013-07-03 12:56:00,88.0,67.0,29.80,SSE,162,0.0,4.0,50,0.00,,,0.00,weatherlink.com 1.10,2013-07-03 19:56:00,
2013-07-03 13:11:00,88.3,67.0,29.80,South,178,1.0,3.0,49,0.00,,,0.00,weatherlink.com 1.10,2013-07-03 20:11:00,
2013-07-03 13:26:00,88.1,67.0,29.80,South,176,0.0,4.0,50,0.00,,,0.00,weatherlink.com 1.10,2013-07-03 20:26:00,
2013-07-03 13:41:00,89.0,70.0,29.79,NNE,20,0.0,4.0,54,0.00,,,0.00,weatherlink.com 1.10,2013-07-03 20:41:00,
2013-07-03 14:11:00,90.4,66.0,29.79,SSW,200,3.0,4.0,45,0.00,,,0.00,weatherlink.com 1.10,2013-07-03 21:11:00,
2013-07-03 14:26:00,90.6,67.0,29.78,SSE,167,1.0,3.0,46,0.00,,,0.00,weatherlink.com 1.10,2013-07-03 21:26:00,
2013-07-03 14:41:00,91.0,67.0,29.78,SW,219,0.0,6.0,46,0.00,,,0.00,weatherlink.com 1.10,2013-07-03 21:41:00,
2013-07-03 14:51:00,91.6,67.0,29.77,NW,324,3.0,4.0,45,0.00,,,0.00,weatherlink.com 1.10,2013-07-03 21:51:00,
2013-07-03 15:05:00,92.5,66.0,29.77,SE,125,2.0,3.0,41,0.00,,,0.00,weatherlink.com 1.10,2013-07-03 22:05:00,
2013-07-03 15:20:00,92.1,67.0,29.77,SE,144,0.0,4.0,44,0.00,,,0.00,weatherlink.com 1.10,2013-07-03 22:20:00,
2013-07-03 15:35:00,92.2,65.0,29.76,SW,221,4.0,4.0,41,0.00,,,0.00,weatherlink.com 1.10,2013-07-03 22:35:00,
2013-07-03 15:50:00,91.3,66.0,29.75,NNW,348,0.0,3.0,43,0.00,,,0.00,weatherlink.com 1.10,2013-07-03 22:50:00,
2013-07-03 16:05:00,91.5,65.0,29.75,East,101,2.0,4.0,42,0.00,,,0.00,weatherlink.com 1.10,2013-07-03 23:05:00,
2013-07-03 16:20:00,91.1,65.0,29.75,North,5,3.0,5.0,42,0.00,,,0.00,weatherlink.com 1.10,2013-07-03 23:20:00,
2013-07-03 16:50:00,89.3,65.0,29.73,North,360,1.0,5.0,45,0.00,,,0.00,weatherlink.com 1.10,2013-07-03 23:50:00,
2013-07-03 17:05:00,90.4,65.0,29.73,North,5,2.0,4.0,43,0.00,,,0.00,weatherlink.com 1.10,2013-07-04 00:05:00,
2013-07-03 17:35:00,89.7,64.0,29.72,SSE,161,2.0,4.0,43,0.00,,,0.00,weatherlink.com 1.10,2013-07-04 00:35:00,
2013-07-03 17:50:00,87.2,64.0,29.72,SSE,163,0.0,4.0,46,0.00,,,0.00,weatherlink.com 1.10,2013-07-04 00:50:00,
2013-07-03 18:05:00,85.6,63.0,29.73,SE,144,2.0,4.0,47,0.00,,,0.00,weatherlink.com 1.10,2013-07-04 01:05:00,
2013-07-03 18:20:00,84.1,62.0,29.73,SE,131,1.0,4.0,47,0.00,,,0.00,weatherlink.com 1.10,2013-07-04 01:20:00,
2013-07-03 18:51:00,82.0,62.0,29.73,SE,139,1.0,3.0,51,0.00,,,0.00,weatherlink.com 1.10,2013-07-04 01:51:00,
2013-07-03 19:06:00,80.9,61.0,29.74,SSE,155,1.0,3.0,51,0.00,,,0.00,weatherlink.com 1.10,2013-07-04 02:06:00,
2013-07-03 19:36:00,77.5,60.0,29.74,SSE,165,1.0,2.0,55,0.00,,,0.00,weatherlink.com 1.10,2013-07-04 02:36:00,
2013-07-03 19:51:00,74.9,59.0,29.75,SSE,151,0.0,3.0,57,0.00,,,0.00,weatherlink.com 1.10,2013-07-04 02:51:00,
2013-07-03 20:06:00,73.1,58.0,29.75,SSW,212,0.0,4.0,59,0.00,,,0.00,weatherlink.com 1.10,2013-07-04 03:06:00,
2013-07-03 20:21:00,71.9,58.0,29.75,SW,219,0.0,2.0,61,0.00,,,0.00,weatherlink.com 1.10,2013-07-04 03:21:00,
2013-07-03 20:36:00,70.8,57.0,29.74,South,179,0.0,3.0,63,0.00,,,0.00,weatherlink.com 1.10,2013-07-04 03:36:00,
2013-07-03 21:06:00,69.5,58.0,29.74,South,179,0.0,1.0,66,0.00,,,0.00,weatherlink.com 1.10,2013-07-04 04:06:00,
2013-07-03 21:21:00,69.0,58.0,29.74,South,178,0.0,1.0,67,0.00,,,0.00,weatherlink.com 1.10,2013-07-04 04:21:00,
2013-07-03 21:36:00,68.6,58.0,29.75,South,178,0.0,1.0,68,0.00,,,0.00,weatherlink.com 1.10,2013-07-04 04:36:00,
2013-07-03 21:51:00,68.2,57.0,29.75,South,182,0.0,1.0,68,0.00,,,0.00,weatherlink.com 1.10,2013-07-04 04:51:00,